sensor_id;sensor_type;location;lat;lon;timestamp;temperature;humidity
69543;SHT31;56762;49.494;11.768;2023-03-14T00:00:35;8.90;94.27
69543;SHT31;56762;49.494;11.768;2023-03-14T00:03:04;8.86;94.02
69543;SHT31;56762;49.494;11.768;2023-03-14T00:05:33;8.83;94.11
69543;SHT31;56762;49.494;11.768;2023-03-14T00:08:01;8.80;94.21
69543;SHT31;56762;49.494;11.768;2023-03-14T00:10:29;8.80;94.29
69543;SHT31;56762;49.494;11.768;2023-03-14T00:12:57;8.78;94.16
69543;SHT31;56762;49.494;11.768;2023-03-14T00:15:24;8.75;94.28
69543;SHT31;56762;49.494;11.768;2023-03-14T00:17:52;8.72;94.32
69543;SHT31;56762;49.494;11.768;2023-03-14T00:20:22;8.69;94.44
69543;SHT31;56762;49.494;11.768;2023-03-14T00:22:49;8.64;94.42
69543;SHT31;56762;49.494;11.768;2023-03-14T00:25:17;8.68;94.49
69543;SHT31;56762;49.494;11.768;2023-03-14T00:27:45;8.65;93.93
69543;SHT31;56762;49.494;11.768;2023-03-14T00:30:13;8.61;94.18
69543;SHT31;56762;49.494;11.768;2023-03-14T00:32:41;8.64;94.11
69543;SHT31;56762;49.494;11.768;2023-03-14T00:35:09;8.61;94.21
69543;SHT31;56762;49.494;11.768;2023-03-14T00:37:38;8.59;94.20
69543;SHT31;56762;49.494;11.768;2023-03-14T00:40:09;8.55;94.32
69543;SHT31;56762;49.494;11.768;2023-03-14T00:42:37;8.54;94.43
69543;SHT31;56762;49.494;11.768;2023-03-14T00:45:05;8.54;94.43
69543;SHT31;56762;49.494;11.768;2023-03-14T00:47:34;8.51;94.35
69543;SHT31;56762;49.494;11.768;2023-03-14T00:50:01;8.51;94.27
69543;SHT31;56762;49.494;11.768;2023-03-14T00:52:29;8.49;94.38
69543;SHT31;56762;49.494;11.768;2023-03-14T00:54:58;8.48;94.36
69543;SHT31;56762;49.494;11.768;2023-03-14T00:57:26;8.48;94.50
69543;SHT31;56762;49.494;11.768;2023-03-14T00:59:53;8.48;94.36
69543;SHT31;56762;49.494;11.768;2023-03-14T01:02:21;8.49;94.33
69543;SHT31;56762;49.494;11.768;2023-03-14T01:04:49;8.48;94.25
69543;SHT31;56762;49.494;11.768;2023-03-14T01:07:17;8.55;92.64
69543;SHT31;56762;49.494;11.768;2023-03-14T01:09:45;8.72;91.17
69543;SHT31;56762;49.494;11.768;2023-03-14T01:12:14;8.79;91.13
69543;SHT31;56762;49.494;11.768;2023-03-14T01:14:42;8.80;91.23
69543;SHT31;56762;49.494;11.768;2023-03-14T01:17:10;8.90;90.82
69543;SHT31;56762;49.494;11.768;2023-03-14T01:19:37;8.90;91.05
69543;SHT31;56762;49.494;11.768;2023-03-14T01:22:05;8.89;91.14
69543;SHT31;56762;49.494;11.768;2023-03-14T01:24:33;8.92;90.94
69543;SHT31;56762;49.494;11.768;2023-03-14T01:27:01;8.90;91.29
69543;SHT31;56762;49.494;11.768;2023-03-14T01:29:30;8.87;91.40
69543;SHT31;56762;49.494;11.768;2023-03-14T01:31:58;8.83;91.47
69543;SHT31;56762;49.494;11.768;2023-03-14T01:34:26;8.79;91.19
69543;SHT31;56762;49.494;11.768;2023-03-14T01:36:53;8.86;90.87
69543;SHT31;56762;49.494;11.768;2023-03-14T01:39:21;8.85;90.80
69543;SHT31;56762;49.494;11.768;2023-03-14T01:41:49;8.86;90.47
69543;SHT31;56762;49.494;11.768;2023-03-14T01:44:17;8.85;90.76
69543;SHT31;56762;49.494;11.768;2023-03-14T01:46:46;8.80;90.82
69543;SHT31;56762;49.494;11.768;2023-03-14T01:49:21;8.85;90.50
69543;SHT31;56762;49.494;11.768;2023-03-14T01:51:54;8.79;90.88
69543;SHT31;56762;49.494;11.768;2023-03-14T01:54:26;8.79;90.75
69543;SHT31;56762;49.494;11.768;2023-03-14T01:56:57;8.79;91.07
69543;SHT31;56762;49.494;11.768;2023-03-14T01:59:29;8.71;91.48
69543;SHT31;56762;49.494;11.768;2023-03-14T02:01:59;8.66;91.75
69543;SHT31;56762;49.494;11.768;2023-03-14T02:04:30;8.66;91.77
69543;SHT31;56762;49.494;11.768;2023-03-14T02:07:09;8.64;91.88
69543;SHT31;56762;49.494;11.768;2023-03-14T02:09:38;8.59;92.16
69543;SHT31;56762;49.494;11.768;2023-03-14T02:12:07;8.58;92.35
69543;SHT31;56762;49.494;11.768;2023-03-14T02:14:36;8.56;92.66
69543;SHT31;56762;49.494;11.768;2023-03-14T02:17:06;8.55;92.62
69543;SHT31;56762;49.494;11.768;2023-03-14T02:19:45;8.54;92.59
69543;SHT31;56762;49.494;11.768;2023-03-14T02:22:15;8.58;92.54
69543;SHT31;56762;49.494;11.768;2023-03-14T02:24:48;8.59;92.32
69543;SHT31;56762;49.494;11.768;2023-03-14T02:27:20;8.61;92.33
69543;SHT31;56762;49.494;11.768;2023-03-14T02:29:51;8.59;92.53
69543;SHT31;56762;49.494;11.768;2023-03-14T02:32:21;8.62;92.39
69543;SHT31;56762;49.494;11.768;2023-03-14T02:34:53;8.62;92.37
69543;SHT31;56762;49.494;11.768;2023-03-14T02:37:24;8.61;92.60
69543;SHT31;56762;49.494;11.768;2023-03-14T02:39:53;8.62;92.08
69543;SHT31;56762;49.494;11.768;2023-03-14T02:42:23;8.65;91.99
69543;SHT31;56762;49.494;11.768;2023-03-14T02:44:52;8.62;91.85
69543;SHT31;56762;49.494;11.768;2023-03-14T02:47:27;8.64;92.12
69543;SHT31;56762;49.494;11.768;2023-03-14T02:49:59;8.64;92.06
69543;SHT31;56762;49.494;11.768;2023-03-14T02:52:28;8.61;92.13
69543;SHT31;56762;49.494;11.768;2023-03-14T02:54:56;8.68;91.78
69543;SHT31;56762;49.494;11.768;2023-03-14T02:57:26;8.66;91.14
69543;SHT31;56762;49.494;11.768;2023-03-14T02:59:53;8.68;91.04
69543;SHT31;56762;49.494;11.768;2023-03-14T03:02:21;8.71;90.83
69543;SHT31;56762;49.494;11.768;2023-03-14T03:04:49;8.72;90.56
69543;SHT31;56762;49.494;11.768;2023-03-14T03:07:17;8.69;90.27
69543;SHT31;56762;49.494;11.768;2023-03-14T03:09:45;8.72;90.14
69543;SHT31;56762;49.494;11.768;2023-03-14T03:12:13;8.72;89.86
69543;SHT31;56762;49.494;11.768;2023-03-14T03:14:42;8.78;89.52
69543;SHT31;56762;49.494;11.768;2023-03-14T03:17:10;8.71;89.72
69543;SHT31;56762;49.494;11.768;2023-03-14T03:19:38;8.65;90.10
69543;SHT31;56762;49.494;11.768;2023-03-14T03:22:06;8.71;89.85
69543;SHT31;56762;49.494;11.768;2023-03-14T03:24:34;8.72;89.42
69543;SHT31;56762;49.494;11.768;2023-03-14T03:27:02;8.71;89.22
69543;SHT31;56762;49.494;11.768;2023-03-14T03:29:29;8.76;89.04
69543;SHT31;56762;49.494;11.768;2023-03-14T03:31:58;8.75;89.07
69543;SHT31;56762;49.494;11.768;2023-03-14T03:34:27;8.79;88.71
69543;SHT31;56762;49.494;11.768;2023-03-14T03:36:55;8.69;88.67
69543;SHT31;56762;49.494;11.768;2023-03-14T03:39:25;8.65;89.25
69543;SHT31;56762;49.494;11.768;2023-03-14T03:41:53;8.65;89.22
69543;SHT31;56762;49.494;11.768;2023-03-14T03:44:21;8.66;88.95
69543;SHT31;56762;49.494;11.768;2023-03-14T03:46:49;8.58;89.26
69543;SHT31;56762;49.494;11.768;2023-03-14T03:49:18;8.55;89.79
69543;SHT31;56762;49.494;11.768;2023-03-14T03:51:46;8.48;89.86
69543;SHT31;56762;49.494;11.768;2023-03-14T03:54:14;8.44;89.96
69543;SHT31;56762;49.494;11.768;2023-03-14T03:56:42;8.38;89.51
69543;SHT31;56762;49.494;11.768;2023-03-14T03:59:10;8.37;89.83
69543;SHT31;56762;49.494;11.768;2023-03-14T04:01:38;8.34;90.20
69543;SHT31;56762;49.494;11.768;2023-03-14T04:04:07;8.33;90.14
69543;SHT31;56762;49.494;11.768;2023-03-14T04:06:36;8.38;90.12
69543;SHT31;56762;49.494;11.768;2023-03-14T04:09:04;8.34;90.01
69543;SHT31;56762;49.494;11.768;2023-03-14T04:11:33;8.30;89.60
69543;SHT31;56762;49.494;11.768;2023-03-14T04:14:01;8.30;89.54
69543;SHT31;56762;49.494;11.768;2023-03-14T04:16:29;8.30;89.84
69543;SHT31;56762;49.494;11.768;2023-03-14T04:18:57;8.27;89.87
69543;SHT31;56762;49.494;11.768;2023-03-14T04:21:25;8.18;90.34
69543;SHT31;56762;49.494;11.768;2023-03-14T04:23:55;8.18;90.65
69543;SHT31;56762;49.494;11.768;2023-03-14T04:26:22;8.18;90.18
69543;SHT31;56762;49.494;11.768;2023-03-14T04:28:50;8.18;90.10
69543;SHT31;56762;49.494;11.768;2023-03-14T04:31:20;8.14;90.09
69543;SHT31;56762;49.494;11.768;2023-03-14T04:33:48;8.16;90.21
69543;SHT31;56762;49.494;11.768;2023-03-14T04:36:16;8.17;89.45
69543;SHT31;56762;49.494;11.768;2023-03-14T04:38:44;8.13;89.72
69543;SHT31;56762;49.494;11.768;2023-03-14T04:41:13;8.13;89.54
69543;SHT31;56762;49.494;11.768;2023-03-14T04:43:41;8.10;89.72
69543;SHT31;56762;49.494;11.768;2023-03-14T04:46:09;8.13;89.70
69543;SHT31;56762;49.494;11.768;2023-03-14T04:48:37;8.10;89.87
69543;SHT31;56762;49.494;11.768;2023-03-14T04:51:06;8.08;89.93
69543;SHT31;56762;49.494;11.768;2023-03-14T04:53:34;8.07;90.01
69543;SHT31;56762;49.494;11.768;2023-03-14T04:56:04;8.00;90.25
69543;SHT31;56762;49.494;11.768;2023-03-14T04:58:33;8.00;90.43
69543;SHT31;56762;49.494;11.768;2023-03-14T05:01:02;7.96;90.36
69543;SHT31;56762;49.494;11.768;2023-03-14T05:03:30;7.91;90.49
69543;SHT31;56762;49.494;11.768;2023-03-14T05:05:58;7.90;90.56
69543;SHT31;56762;49.494;11.768;2023-03-14T05:08:27;7.91;90.35
69543;SHT31;56762;49.494;11.768;2023-03-14T05:10:55;7.91;90.44
69543;SHT31;56762;49.494;11.768;2023-03-14T05:13:23;7.93;90.21
69543;SHT31;56762;49.494;11.768;2023-03-14T05:15:52;7.94;90.26
69543;SHT31;56762;49.494;11.768;2023-03-14T05:18:21;7.96;90.45
69543;SHT31;56762;49.494;11.768;2023-03-14T05:20:50;7.98;90.41
69543;SHT31;56762;49.494;11.768;2023-03-14T05:23:18;7.93;90.64
69543;SHT31;56762;49.494;11.768;2023-03-14T05:25:46;7.97;90.46
69543;SHT31;56762;49.494;11.768;2023-03-14T05:28:14;7.96;90.62
69543;SHT31;56762;49.494;11.768;2023-03-14T05:30:42;7.90;90.74
69543;SHT31;56762;49.494;11.768;2023-03-14T05:33:11;7.89;90.56
69543;SHT31;56762;49.494;11.768;2023-03-14T05:35:39;7.87;90.28
69543;SHT31;56762;49.494;11.768;2023-03-14T05:38:07;7.87;90.58
69543;SHT31;56762;49.494;11.768;2023-03-14T05:40:35;7.90;90.26
69543;SHT31;56762;49.494;11.768;2023-03-14T05:43:03;7.90;90.28
69543;SHT31;56762;49.494;11.768;2023-03-14T05:45:34;7.89;90.48
69543;SHT31;56762;49.494;11.768;2023-03-14T05:48:04;7.94;90.39
69543;SHT31;56762;49.494;11.768;2023-03-14T05:50:33;7.90;90.24
69543;SHT31;56762;49.494;11.768;2023-03-14T05:53:00;7.87;90.48
69543;SHT31;56762;49.494;11.768;2023-03-14T05:55:28;7.86;90.55
69543;SHT31;56762;49.494;11.768;2023-03-14T05:57:56;7.87;90.29
69543;SHT31;56762;49.494;11.768;2023-03-14T06:00:23;7.83;90.62
69543;SHT31;56762;49.494;11.768;2023-03-14T06:02:52;7.91;89.99
69543;SHT31;56762;49.494;11.768;2023-03-14T06:05:20;7.87;90.24
69543;SHT31;56762;49.494;11.768;2023-03-14T06:07:49;7.83;90.69
69543;SHT31;56762;49.494;11.768;2023-03-14T06:10:17;7.83;90.53
69543;SHT31;56762;49.494;11.768;2023-03-14T06:12:45;7.86;90.64
69543;SHT31;56762;49.494;11.768;2023-03-14T06:15:13;7.93;90.15
69543;SHT31;56762;49.494;11.768;2023-03-14T06:17:40;7.93;90.47
69543;SHT31;56762;49.494;11.768;2023-03-14T06:20:09;7.94;90.21
69543;SHT31;56762;49.494;11.768;2023-03-14T06:22:37;7.96;89.84
69543;SHT31;56762;49.494;11.768;2023-03-14T06:25:09;8.01;89.68
69543;SHT31;56762;49.494;11.768;2023-03-14T06:27:36;8.00;90.03
69543;SHT31;56762;49.494;11.768;2023-03-14T06:30:06;8.01;89.98
69543;SHT31;56762;49.494;11.768;2023-03-14T06:32:33;8.01;89.94
69543;SHT31;56762;49.494;11.768;2023-03-14T06:35:01;8.03;90.22
69543;SHT31;56762;49.494;11.768;2023-03-14T06:37:29;8.03;90.16
69543;SHT31;56762;49.494;11.768;2023-03-14T06:39:57;8.07;90.25
69543;SHT31;56762;49.494;11.768;2023-03-14T06:42:26;8.06;90.15
69543;SHT31;56762;49.494;11.768;2023-03-14T06:44:54;8.08;90.15
69543;SHT31;56762;49.494;11.768;2023-03-14T06:47:22;8.08;90.43
69543;SHT31;56762;49.494;11.768;2023-03-14T06:49:50;8.13;89.87
69543;SHT31;56762;49.494;11.768;2023-03-14T06:52:19;8.18;89.36
69543;SHT31;56762;49.494;11.768;2023-03-14T06:54:47;8.25;88.84
69543;SHT31;56762;49.494;11.768;2023-03-14T06:57:14;8.31;88.58
69543;SHT31;56762;49.494;11.768;2023-03-14T06:59:44;8.35;88.90
69543;SHT31;56762;49.494;11.768;2023-03-14T07:02:12;8.37;88.70
69543;SHT31;56762;49.494;11.768;2023-03-14T07:04:40;8.40;89.00
69543;SHT31;56762;49.494;11.768;2023-03-14T07:07:08;8.47;88.25
69543;SHT31;56762;49.494;11.768;2023-03-14T07:09:36;8.48;88.33
69543;SHT31;56762;49.494;11.768;2023-03-14T07:12:04;8.54;88.84
69543;SHT31;56762;49.494;11.768;2023-03-14T07:14:33;8.59;88.01
69543;SHT31;56762;49.494;11.768;2023-03-14T07:17:02;8.65;87.89
69543;SHT31;56762;49.494;11.768;2023-03-14T07:19:30;8.76;87.20
69543;SHT31;56762;49.494;11.768;2023-03-14T07:21:58;8.89;86.58
69543;SHT31;56762;49.494;11.768;2023-03-14T07:24:26;8.99;86.15
69543;SHT31;56762;49.494;11.768;2023-03-14T07:26:54;9.09;87.02
69543;SHT31;56762;49.494;11.768;2023-03-14T07:29:22;9.19;86.80
69543;SHT31;56762;49.494;11.768;2023-03-14T07:31:50;9.27;85.12
69543;SHT31;56762;49.494;11.768;2023-03-14T07:34:20;9.40;84.95
69543;SHT31;56762;49.494;11.768;2023-03-14T07:36:48;9.51;83.85
69543;SHT31;56762;49.494;11.768;2023-03-14T07:39:17;9.62;83.59
69543;SHT31;56762;49.494;11.768;2023-03-14T07:41:44;9.68;83.46
69543;SHT31;56762;49.494;11.768;2023-03-14T07:44:12;9.74;83.32
69543;SHT31;56762;49.494;11.768;2023-03-14T07:46:40;9.73;83.34
69543;SHT31;56762;49.494;11.768;2023-03-14T07:49:08;9.77;83.40
69543;SHT31;56762;49.494;11.768;2023-03-14T07:51:37;9.81;82.40
69543;SHT31;56762;49.494;11.768;2023-03-14T07:54:05;9.81;82.13
69543;SHT31;56762;49.494;11.768;2023-03-14T07:56:34;9.79;82.63
69543;SHT31;56762;49.494;11.768;2023-03-14T07:59:01;9.77;82.20
69543;SHT31;56762;49.494;11.768;2023-03-14T08:01:29;9.75;82.89
69543;SHT31;56762;49.494;11.768;2023-03-14T08:03:58;9.79;82.25
69543;SHT31;56762;49.494;11.768;2023-03-14T08:06:26;9.82;81.58
69543;SHT31;56762;49.494;11.768;2023-03-14T08:08:55;9.82;81.98
69543;SHT31;56762;49.494;11.768;2023-03-14T08:11:23;9.81;81.97
69543;SHT31;56762;49.494;11.768;2023-03-14T08:13:51;9.78;82.31
69543;SHT31;56762;49.494;11.768;2023-03-14T08:16:19;9.82;81.84
69543;SHT31;56762;49.494;11.768;2023-03-14T08:18:47;9.87;81.51
69543;SHT31;56762;49.494;11.768;2023-03-14T08:21:15;9.91;81.29
69543;SHT31;56762;49.494;11.768;2023-03-14T08:23:43;9.95;81.23
69543;SHT31;56762;49.494;11.768;2023-03-14T08:26:12;10.06;81.36
69543;SHT31;56762;49.494;11.768;2023-03-14T08:28:40;10.06;80.62
69543;SHT31;56762;49.494;11.768;2023-03-14T08:31:08;10.08;79.90
69543;SHT31;56762;49.494;11.768;2023-03-14T08:33:37;10.06;80.52
69543;SHT31;56762;49.494;11.768;2023-03-14T08:36:07;10.08;80.14
69543;SHT31;56762;49.494;11.768;2023-03-14T08:38:36;10.13;80.25
69543;SHT31;56762;49.494;11.768;2023-03-14T08:41:04;10.20;80.30
69543;SHT31;56762;49.494;11.768;2023-03-14T08:43:34;10.20;79.96
69543;SHT31;56762;49.494;11.768;2023-03-14T08:46:03;10.19;79.60
69543;SHT31;56762;49.494;11.768;2023-03-14T08:48:30;10.22;79.52
69543;SHT31;56762;49.494;11.768;2023-03-14T08:51:04;10.19;79.45
69543;SHT31;56762;49.494;11.768;2023-03-14T08:53:32;10.23;79.74
69543;SHT31;56762;49.494;11.768;2023-03-14T08:56:00;10.22;79.77
69543;SHT31;56762;49.494;11.768;2023-03-14T08:58:28;10.25;79.60
69543;SHT31;56762;49.494;11.768;2023-03-14T09:01:00;10.32;79.97
69543;SHT31;56762;49.494;11.768;2023-03-14T09:03:28;10.32;79.56
69543;SHT31;56762;49.494;11.768;2023-03-14T09:06:01;10.35;79.43
69543;SHT31;56762;49.494;11.768;2023-03-14T09:08:30;10.37;78.91
69543;SHT31;56762;49.494;11.768;2023-03-14T09:10:58;10.33;78.57
69543;SHT31;56762;49.494;11.768;2023-03-14T09:13:26;10.30;78.55
69543;SHT31;56762;49.494;11.768;2023-03-14T09:15:55;10.32;78.05
69543;SHT31;56762;49.494;11.768;2023-03-14T09:18:25;10.40;78.30
69543;SHT31;56762;49.494;11.768;2023-03-14T09:20:55;10.43;78.32
69543;SHT31;56762;49.494;11.768;2023-03-14T09:23:23;10.45;78.44
69543;SHT31;56762;49.494;11.768;2023-03-14T09:25:54;10.45;78.01
69543;SHT31;56762;49.494;11.768;2023-03-14T09:28:22;10.55;77.84
69543;SHT31;56762;49.494;11.768;2023-03-14T09:30:51;10.59;77.90
69543;SHT31;56762;49.494;11.768;2023-03-14T09:33:19;10.63;77.23
69543;SHT31;56762;49.494;11.768;2023-03-14T09:35:49;10.70;77.59
69543;SHT31;56762;49.494;11.768;2023-03-14T09:38:17;10.81;77.73
69543;SHT31;56762;49.494;11.768;2023-03-14T09:40:48;10.85;77.12
69543;SHT31;56762;49.494;11.768;2023-03-14T09:43:18;10.84;76.89
69543;SHT31;56762;49.494;11.768;2023-03-14T09:45:48;10.97;75.68
69543;SHT31;56762;49.494;11.768;2023-03-14T09:48:19;10.90;76.22
69543;SHT31;56762;49.494;11.768;2023-03-14T09:50:51;10.94;75.65
69543;SHT31;56762;49.494;11.768;2023-03-14T09:53:23;10.77;75.99
69543;SHT31;56762;49.494;11.768;2023-03-14T09:55:51;10.83;77.94
69543;SHT31;56762;49.494;11.768;2023-03-14T09:58:21;10.84;75.98
69543;SHT31;56762;49.494;11.768;2023-03-14T10:00:50;10.98;76.63
69543;SHT31;56762;49.494;11.768;2023-03-14T10:03:26;11.15;76.60
69543;SHT31;56762;49.494;11.768;2023-03-14T10:05:55;11.34;76.44
69543;SHT31;56762;49.494;11.768;2023-03-14T10:08:24;11.42;74.30
69543;SHT31;56762;49.494;11.768;2023-03-14T10:10:51;11.38;74.50
69543;SHT31;56762;49.494;11.768;2023-03-14T10:13:23;11.56;75.09
69543;SHT31;56762;49.494;11.768;2023-03-14T10:15:54;11.73;73.97
69543;SHT31;56762;49.494;11.768;2023-03-14T10:18:23;11.87;74.04
69543;SHT31;56762;49.494;11.768;2023-03-14T10:21:05;12.00;72.61
69543;SHT31;56762;49.494;11.768;2023-03-14T10:23:34;12.04;72.65
69543;SHT31;56762;49.494;11.768;2023-03-14T10:26:08;11.99;72.65
69543;SHT31;56762;49.494;11.768;2023-03-14T10:28:39;11.94;71.88
69543;SHT31;56762;49.494;11.768;2023-03-14T10:31:08;11.83;72.02
69543;SHT31;56762;49.494;11.768;2023-03-14T10:33:38;11.85;72.72
69543;SHT31;56762;49.494;11.768;2023-03-14T10:36:18;11.89;72.59
69543;SHT31;56762;49.494;11.768;2023-03-14T10:38:48;11.79;72.42
69543;SHT31;56762;49.494;11.768;2023-03-14T10:41:19;11.77;73.35
69543;SHT31;56762;49.494;11.768;2023-03-14T10:43:49;11.77;73.15
69543;SHT31;56762;49.494;11.768;2023-03-14T10:46:19;11.65;73.35
69543;SHT31;56762;49.494;11.768;2023-03-14T10:48:48;11.56;73.51
69543;SHT31;56762;49.494;11.768;2023-03-14T10:51:25;11.46;74.32
69543;SHT31;56762;49.494;11.768;2023-03-14T10:53:58;11.39;74.38
69543;SHT31;56762;49.494;11.768;2023-03-14T10:56:27;11.29;73.82
69543;SHT31;56762;49.494;11.768;2023-03-14T10:59:01;11.22;74.89
69543;SHT31;56762;49.494;11.768;2023-03-14T11:01:37;11.24;74.46
69543;SHT31;56762;49.494;11.768;2023-03-14T11:04:15;11.43;73.50
69543;SHT31;56762;49.494;11.768;2023-03-14T11:06:54;11.58;73.50
69543;SHT31;56762;49.494;11.768;2023-03-14T11:09:29;11.75;73.15
69543;SHT31;56762;49.494;11.768;2023-03-14T11:12:08;11.83;72.63
69543;SHT31;56762;49.494;11.768;2023-03-14T11:14:47;11.96;72.71
69543;SHT31;56762;49.494;11.768;2023-03-14T11:17:23;12.03;72.57
69543;SHT31;56762;49.494;11.768;2023-03-14T11:20:02;12.10;72.27
69543;SHT31;56762;49.494;11.768;2023-03-14T11:22:39;12.18;72.29
69543;SHT31;56762;49.494;11.768;2023-03-14T11:25:21;12.21;71.35
69543;SHT31;56762;49.494;11.768;2023-03-14T11:27:59;12.14;70.67
69543;SHT31;56762;49.494;11.768;2023-03-14T11:30:34;12.13;70.95
69543;SHT31;56762;49.494;11.768;2023-03-14T11:33:08;12.13;71.09
69543;SHT31;56762;49.494;11.768;2023-03-14T11:35:46;12.14;71.27
69543;SHT31;56762;49.494;11.768;2023-03-14T11:38:28;12.09;70.86
69543;SHT31;56762;49.494;11.768;2023-03-14T11:40:58;12.10;70.56
69543;SHT31;56762;49.494;11.768;2023-03-14T11:43:28;12.09;71.19
69543;SHT31;56762;49.494;11.768;2023-03-14T11:46:03;12.07;71.81
69543;SHT31;56762;49.494;11.768;2023-03-14T11:48:37;11.94;71.11
69543;SHT31;56762;49.494;11.768;2023-03-14T11:51:09;11.90;71.52
69543;SHT31;56762;49.494;11.768;2023-03-14T11:53:47;11.77;72.84
69543;SHT31;56762;49.494;11.768;2023-03-14T11:56:22;11.76;73.12
69543;SHT31;56762;49.494;11.768;2023-03-14T11:58:57;11.66;73.58
69543;SHT31;56762;49.494;11.768;2023-03-14T12:01:31;11.61;74.52
69543;SHT31;56762;49.494;11.768;2023-03-14T12:04:11;11.62;75.49
69543;SHT31;56762;49.494;11.768;2023-03-14T12:06:45;11.63;76.17
69543;SHT31;56762;49.494;11.768;2023-03-14T12:09:16;11.63;76.22
69543;SHT31;56762;49.494;11.768;2023-03-14T12:11:48;11.61;76.96
69543;SHT31;56762;49.494;11.768;2023-03-14T12:14:22;11.55;78.27
69543;SHT31;56762;49.494;11.768;2023-03-14T12:16:54;11.58;79.83
69543;SHT31;56762;49.494;11.768;2023-03-14T12:19:30;11.61;80.05
69543;SHT31;56762;49.494;11.768;2023-03-14T12:22:05;11.61;80.53
69543;SHT31;56762;49.494;11.768;2023-03-14T12:24:37;11.51;80.20
69543;SHT31;56762;49.494;11.768;2023-03-14T12:27:06;11.56;80.82
69543;SHT31;56762;49.494;11.768;2023-03-14T12:29:57;11.51;80.28
69543;SHT31;56762;49.494;11.768;2023-03-14T12:32:28;11.42;80.66
69543;SHT31;56762;49.494;11.768;2023-03-14T12:35:07;11.43;80.80
69543;SHT31;56762;49.494;11.768;2023-03-14T12:37:56;11.46;80.08
69543;SHT31;56762;49.494;11.768;2023-03-14T12:40:30;11.38;79.92
69543;SHT31;56762;49.494;11.768;2023-03-14T12:42:59;11.32;80.21
69543;SHT31;56762;49.494;11.768;2023-03-14T12:45:29;11.34;79.32
69543;SHT31;56762;49.494;11.768;2023-03-14T12:48:11;11.45;78.69
69543;SHT31;56762;49.494;11.768;2023-03-14T12:50:43;11.38;78.13
69543;SHT31;56762;49.494;11.768;2023-03-14T12:56:25;11.43;77.30
69543;SHT31;56762;49.494;11.768;2023-03-14T13:01:53;11.35;77.72
69543;SHT31;56762;49.494;11.768;2023-03-14T13:04:28;11.35;77.53
69543;SHT31;56762;49.494;11.768;2023-03-14T13:07:11;11.43;78.07
69543;SHT31;56762;49.494;11.768;2023-03-14T13:10:13;11.49;76.86
69543;SHT31;56762;49.494;11.768;2023-03-14T13:12:48;11.54;76.71
69543;SHT31;56762;49.494;11.768;2023-03-14T13:15:21;11.62;77.01
69543;SHT31;56762;49.494;11.768;2023-03-14T13:17:51;11.69;76.67
69543;SHT31;56762;49.494;11.768;2023-03-14T13:20:26;11.72;76.30
69543;SHT31;56762;49.494;11.768;2023-03-14T13:22:55;11.75;77.05
69543;SHT31;56762;49.494;11.768;2023-03-14T13:25:23;11.80;76.68
69543;SHT31;56762;49.494;11.768;2023-03-14T13:27:53;11.86;76.24
69543;SHT31;56762;49.494;11.768;2023-03-14T13:30:24;11.96;76.70
69543;SHT31;56762;49.494;11.768;2023-03-14T13:32:53;11.99;75.72
69543;SHT31;56762;49.494;11.768;2023-03-14T13:35:25;11.96;74.50
69543;SHT31;56762;49.494;11.768;2023-03-14T13:37:55;11.99;75.16
69543;SHT31;56762;49.494;11.768;2023-03-14T13:40:36;11.94;74.91
69543;SHT31;56762;49.494;11.768;2023-03-14T13:43:15;11.94;74.99
69543;SHT31;56762;49.494;11.768;2023-03-14T13:45:44;11.96;75.00
69543;SHT31;56762;49.494;11.768;2023-03-14T13:48:13;11.87;74.83
69543;SHT31;56762;49.494;11.768;2023-03-14T13:50:54;11.77;75.18
69543;SHT31;56762;49.494;11.768;2023-03-14T13:53:23;11.65;77.09
69543;SHT31;56762;49.494;11.768;2023-03-14T13:55:51;11.46;79.59
69543;SHT31;56762;49.494;11.768;2023-03-14T13:58:23;11.34;80.20
69543;SHT31;56762;49.494;11.768;2023-03-14T14:01:13;10.80;83.26
69543;SHT31;56762;49.494;11.768;2023-03-14T14:03:44;10.50;83.81
69543;SHT31;56762;49.494;11.768;2023-03-14T14:06:27;10.40;84.18
69543;SHT31;56762;49.494;11.768;2023-03-14T14:08:59;10.40;84.16
69543;SHT31;56762;49.494;11.768;2023-03-14T14:11:42;10.40;84.04
69543;SHT31;56762;49.494;11.768;2023-03-14T14:14:33;10.29;85.22
69543;SHT31;56762;49.494;11.768;2023-03-14T14:17:04;10.12;85.57
69543;SHT31;56762;49.494;11.768;2023-03-14T14:19:34;10.03;86.16
69543;SHT31;56762;49.494;11.768;2023-03-14T14:22:03;10.01;86.57
69543;SHT31;56762;49.494;11.768;2023-03-14T14:24:32;9.89;85.48
69543;SHT31;56762;49.494;11.768;2023-03-14T14:27:01;9.87;86.36
69543;SHT31;56762;49.494;11.768;2023-03-14T14:29:32;9.79;87.33
69543;SHT31;56762;49.494;11.768;2023-03-14T14:32:11;9.77;86.93
69543;SHT31;56762;49.494;11.768;2023-03-14T14:34:40;9.70;86.79
69543;SHT31;56762;49.494;11.768;2023-03-14T14:37:23;9.67;86.94
69543;SHT31;56762;49.494;11.768;2023-03-14T14:39:55;9.61;87.59
69543;SHT31;56762;49.494;11.768;2023-03-14T14:42:25;9.57;87.37
69543;SHT31;56762;49.494;11.768;2023-03-14T14:44:56;9.48;87.29
69543;SHT31;56762;49.494;11.768;2023-03-14T14:47:26;9.46;87.41
69543;SHT31;56762;49.494;11.768;2023-03-14T14:49:58;9.38;88.15
69543;SHT31;56762;49.494;11.768;2023-03-14T14:52:33;9.34;88.20
69543;SHT31;56762;49.494;11.768;2023-03-14T14:55:01;9.31;87.83
69543;SHT31;56762;49.494;11.768;2023-03-14T14:57:31;9.31;88.68
69543;SHT31;56762;49.494;11.768;2023-03-14T15:00:06;9.22;87.94
69543;SHT31;56762;49.494;11.768;2023-03-14T15:02:40;9.13;87.76
69543;SHT31;56762;49.494;11.768;2023-03-14T15:05:13;9.19;87.50
69543;SHT31;56762;49.494;11.768;2023-03-14T15:07:41;9.16;88.35
69543;SHT31;56762;49.494;11.768;2023-03-14T15:10:11;9.19;87.24
69543;SHT31;56762;49.494;11.768;2023-03-14T15:12:39;9.16;85.27
69543;SHT31;56762;49.494;11.768;2023-03-14T15:15:10;9.09;86.13
69543;SHT31;56762;49.494;11.768;2023-03-14T15:17:38;9.02;86.37
69543;SHT31;56762;49.494;11.768;2023-03-14T15:20:11;8.89;86.40
69543;SHT31;56762;49.494;11.768;2023-03-14T15:22:41;8.75;85.81
69543;SHT31;56762;49.494;11.768;2023-03-14T15:25:09;8.59;86.18
69543;SHT31;56762;49.494;11.768;2023-03-14T15:27:57;8.34;84.93
69543;SHT31;56762;49.494;11.768;2023-03-14T15:30:26;8.14;85.55
69543;SHT31;56762;49.494;11.768;2023-03-14T15:32:54;8.04;85.57
69543;SHT31;56762;49.494;11.768;2023-03-14T15:35:22;8.06;86.43
69543;SHT31;56762;49.494;11.768;2023-03-14T15:37:50;7.94;85.46
69543;SHT31;56762;49.494;11.768;2023-03-14T15:40:18;7.85;84.97
69543;SHT31;56762;49.494;11.768;2023-03-14T15:42:47;7.82;84.00
69543;SHT31;56762;49.494;11.768;2023-03-14T15:45:15;7.76;85.66
69543;SHT31;56762;49.494;11.768;2023-03-14T15:47:44;7.72;85.66
69543;SHT31;56762;49.494;11.768;2023-03-14T15:50:12;7.65;84.89